Asco, WV

7:11 AM EDT on July 13, 2014 (GMT -0400)
Mercer County (KBLF) Elev 2858 ft | 37.30 °N, 81.21 °W | Change Station

Current weather conditions updated 19 minutes ago

Overcast
Overcast
73 °F
Feels Like 73 °F
N
6
Wind Variable Wind from West

Today is forecast to be nearly the same temperature as yesterday. Afternoon thunderstorms.

Today
High -- | Low -- °F
--% Chance of Precip.
Yesterday
High -- | Low -- °F
Precip. -- in
6:16 AM 8:48 PM
Full, 98% visible
Pressure 30.09 in
Visibility 10.0 miles
Clouds Few 5000 ft
Few 7500 ft
Overcast 10000 ft
Dew Point 62 °F
Humidity 68%
Rainfall 0.00 in
Snow Depth Not available.
UV 0 out of 12
Pollen 3.90 out of 12
Air Quality Not available.
Flu Activity Sporadic
METAR KBLF 131052Z AUTO 28005KT 10SM FEW050 FEW075 OVC100 23/17 A3022 RMK AO2 SLP190 T02280167

More Conditions Fewer Conditions

Pressure 30.09 in
Visibility 10.0 miles
Clouds Few 5000 ft
Few 7500 ft
Overcast 10000 ft
Dew Point 62 °F
Humidity 68%
Rainfall 0.00 in
Snow Depth Not available.
UV 0 out of 12
Pollen 3.90 out of 12
Air Quality Not available.
Flu Activity Sporadic
METAR KBLF 131052Z AUTO 28005KT 10SM FEW050 FEW075 OVC100 23/17 A3022 RMK AO2 SLP190 T02280167

More Conditions Fewer Conditions

10-Day Weather Forecast

Almanac

Astronomy

Jul. 13, 2014 Rise Set
Actual Time 6:16 AM EDT 8:48 PM EDT
Civil Twilight 5:45 AM EDT 9:18 PM EDT
Nautical Twilight 5:08 AM EDT 9:56 PM EDT
Astronomical Twilight 4:26 AM EDT 10:38 PM EDT
Moon 9:39 PM EDT 7:42 AM EDT
Length of Visible Light 15h 32m
Length of Day
14h 32m
Tomorrow will be 1m 9s shorter.
Full, 98% of the Moon is Illuminated
Today
Full
Jul 18
Last Quarter
Jul 26
New
Aug 3
First Quarter
Aug 10
Full

Today's Extremes

State Highs State Lows

Community

WunderPhotos

Upload Photos

1,733,154 photos uploaded!

Nearby

Snow Depth

Station Depth Elevation
No new snow has been reported.

Earthquake Activity

City Distance Mag. Time & Date
No recent earthquake activity has been reported nearby.
Minimum magnitude displayed is 2.5.

Coastal Water Temperatures

Place Temperature
No Stations Reporting

Nearby Weather Stations

Station Location Temp. Dew Point Humidity Wind Precip. Elev Updated Type
Mullens, WV 68.9 °F 67 °F 95% NE  at  0.0 mph 0.00 in / hr 1585 ft 7:10 AM EDT Normal

Show More Stations Show Fewer Stations